Time;durP1;ratioP1;P1;durP2;ratioP2;P2;SDS_P1;SDS_P2;PMS_P1;PMS_P2;Temp;Humidity;BMP_temperature;BMP_pressure;BME280_temperature;BME280_humidity;BME280_pressure;Samples;Min_cycle;Max_cycle;Signal;HPM_P1;HPM_P2
2023/09/24 00:02:10;;;;;;;;;;;11.40;90.40;;;;;;4971619;28;20083;-88
2023/09/24 00:04:39;;;;;;;5.53;4.30;;;10.80;91.80;;;;;;4954788;29;19922;-88
2023/09/24 00:07:07;;;;;;;9.90;4.65;;;11.50;90.50;;;;;;4954975;28;20082;-88
2023/09/24 00:09:36;;;;;;;10.85;6.20;;;11.50;90.70;;;;;;4953429;29;20138;-88
2023/09/24 00:12:02;;;;;;;7.10;4.82;;;11.50;91.00;;;;;;4953706;29;20043;-90
2023/09/24 00:14:30;;;;;;;17.33;5.50;;;11.50;91.50;;;;;;4952511;29;20483;-89
2023/09/24 00:16:57;;;;;;;5.63;4.45;;;11.50;92.00;;;;;;4938854;29;20086;-88
2023/09/24 00:19:24;;;;;;;6.97;4.53;;;11.50;92.90;;;;;;4955820;28;20047;-89
2023/09/24 00:21:50;;;;;;;5.57;4.30;;;11.50;93.50;;;;;;4954927;29;20051;-88
2023/09/24 00:24:17;;;;;;;6.45;3.90;;;11.50;93.60;;;;;;4953554;29;20058;-90
2023/09/24 00:26:43;;;;;;;8.55;4.25;;;11.60;93.70;;;;;;4954093;29;20069;-88
2023/09/24 00:29:10;;;;;;;8.15;3.85;;;10.90;93.50;;;;;;4953423;29;20414;-88
2023/09/24 00:31:35;;;;;;;;;;;11.60;94.20;;;;;;4955309;29;20066;-88
2023/09/24 00:34:02;;;;;;;5.45;3.75;;;11.50;95.60;;;;;;4954012;29;19922;-89
2023/09/24 00:36:30;;;;;;;5.93;4.05;;;11.50;94.20;;;;;;4954655;28;20134;-89
2023/09/24 00:38:56;;;;;;;8.70;4.47;;;11.60;94.10;;;;;;4957211;29;20046;-88
2023/09/24 00:41:21;;;;;;;5.47;3.70;;;11.50;94.90;;;;;;4956670;29;20050;-89
2023/09/24 00:43:50;;;;;;;5.37;4.50;;;11.50;95.30;;;;;;4956910;29;20086;-88
2023/09/24 00:46:16;;;;;;;6.07;3.95;;;11.60;95.50;;;;;;4956857;29;20050;-88
2023/09/24 00:48:43;;;;;;;6.13;3.72;;;11.50;95.70;;;;;;4974579;28;20047;-88
2023/09/24 00:51:26;;;;;;;7.65;4.20;;;11.60;95.40;;;;;;4958141;29;20059;-88
2023/09/24 00:53:53;;;;;;;7.55;5.35;;;11.40;95.30;;;;;;4957220;29;20089;-89
2023/09/24 00:56:20;;;;;;;8.48;5.35;;;11.50;95.50;;;;;;4957404;29;20058;-88
2023/09/24 00:58:50;;;;;;;6.60;4.30;;;11.40;95.70;;;;;;4956954;29;20138;-88
2023/09/24 01:01:16;;;;;;;7.20;4.22;;;11.40;95.90;;;;;;4957450;29;20051;-88
2023/09/24 01:03:43;;;;;;;6.53;3.90;;;11.40;96.10;;;;;;4958023;29;20390;-88
2023/09/24 01:06:09;;;;;;;;;;;11.40;96.40;;;;;;4958043;29;20079;-89
2023/09/24 01:08:38;;;;;;;4.68;4.03;;;11.40;97.30;;;;;;4956978;29;19923;-89
2023/09/24 01:11:05;;;;;;;4.55;3.25;;;11.40;96.30;;;;;;4957123;29;20051;-89
2023/09/24 01:13:41;;;;;;;4.07;3.42;;;11.30;95.90;;;;;;4958012;28;20504;-87
2023/09/24 01:16:08;;;;;;;6.25;3.42;;;11.40;95.20;;;;;;4957338;29;20055;-89
2023/09/24 01:18:42;;;;;;;3.13;2.83;;;10.70;94.90;;;;;;4955642;29;20138;-89
2023/09/24 01:21:18;;;;;;;5.88;4.07;;;11.30;94.50;;;;;;4957127;29;20458;-89
2023/09/24 01:23:45;;;;;;;8.02;3.58;;;11.30;94.00;;;;;;4956812;29;20047;-89
2023/09/24 01:26:18;;;;;;;6.07;3.30;;;11.30;94.00;;;;;;4956612;29;20055;-88
2023/09/24 01:28:47;;;;;;;4.03;2.90;;;11.30;93.70;;;;;;4957564;29;20716;-88
2023/09/24 01:31:15;;;;;;;4.05;3.50;;;11.30;93.60;;;;;;4957018;29;20117;-88
2023/09/24 01:33:41;;;;;;;4.20;3.42;;;11.20;93.40;;;;;;4955549;28;20167;-88
2023/09/24 01:36:10;;;;;;;3.67;3.37;;;11.20;93.90;;;;;;4955623;29;20138;-88
2023/09/24 01:38:40;;;;;;;5.75;3.72;;;11.20;93.50;;;;;;4956728;29;20482;-89
2023/09/24 01:41:12;;;;;;;6.30;3.70;;;11.10;93.60;;;;;;4957721;28;20138;-89
2023/09/24 01:43:44;;;;;;;6.82;4.45;;;11.00;93.10;;;;;;4955917;28;20090;-89
2023/09/24 01:46:13;;;;;;;7.97;4.18;;;11.00;93.40;;;;;;4957839;29;20137;-88
2023/09/24 01:48:39;;;;;;;5.95;4.40;;;11.00;93.40;;;;;;4957538;28;20055;-89
2023/09/24 01:51:07;;;;;;;5.70;4.35;;;11.00;93.70;;;;;;4957826;29;20074;-89
2023/09/24 01:53:33;;;;;;;4.55;3.90;;;10.90;93.50;;;;;;4955567;29;20055;-89
2023/09/24 01:56:01;;;;;;;4.68;3.90;;;10.90;93.40;;;;;;4955316;29;20106;-89
2023/09/24 01:58:27;;;;;;;5.60;3.25;;;10.90;93.10;;;;;;4956188;29;20619;-89
2023/09/24 02:00:53;;;;;;;5.00;4.20;;;10.70;92.60;;;;;;4955139;28;20056;-88
2023/09/24 02:03:21;;;;;;;3.70;3.40;;;10.80;92.60;;;;;;4957679;29;20490;-89
2023/09/24 02:05:49;;;;;;;4.55;2.97;;;10.80;92.40;;;;;;4939940;29;20047;-88
2023/09/24 02:08:15;;;;;;;7.03;3.88;;;10.70;92.20;;;;;;4955912;29;20063;-88
2023/09/24 02:10:43;;;;;;;5.27;3.60;;;10.70;92.20;;;;;;4957001;29;20397;-89
2023/09/24 02:13:10;;;;;;;7.20;3.83;;;10.70;92.50;;;;;;4957025;28;20055;-89
2023/09/24 02:15:38;;;;;;;10.13;4.43;;;10.70;93.20;;;;;;4955791;29;20051;-89
2023/09/24 02:18:05;;;;;;;4.00;3.40;;;10.70;93.70;;;;;;4956471;29;20158;-89
2023/09/24 02:20:32;;;;;;;5.32;3.20;;;10.70;93.80;;;;;;4971931;28;20070;-88
2023/09/24 02:23:00;;;;;;;6.95;3.83;;;10.70;94.00;;;;;;4956203;29;20456;-88
2023/09/24 02:25:31;;;;;;;11.23;4.30;;;10.60;93.60;;;;;;4956831;29;20047;-89
2023/09/24 02:27:58;;;;;;;3.80;3.40;;;10.60;93.40;;;;;;4955330;29;20086;-88
2023/09/24 02:30:29;;;;;;;15.07;4.57;;;10.70;93.00;;;;;;4955035;29;20137;-88
2023/09/24 02:33:02;;;;;;;13.93;3.88;;;10.60;93.10;;;;;;4954556;29;20082;-88
2023/09/24 02:35:28;;;;;;;40.25;6.10;;;10.60;93.70;;;;;;4955292;29;20146;-88
2023/09/24 02:37:54;;;;;;;16.48;4.28;;;10.60;94.20;;;;;;4954970;29;20062;-88
2023/09/24 02:40:22;;;;;;;28.00;5.10;;;10.60;94.20;;;;;;4955422;29;20047;-88
2023/09/24 02:42:53;;;;;;;49.92;8.43;;;10.60;93.90;;;;;;4953883;29;20047;-88
2023/09/24 02:45:19;;;;;;;8.82;4.05;;;10.50;93.70;;;;;;4954988;29;20054;-89
2023/09/24 02:47:47;;;;;;;23.55;5.20;;;10.50;93.90;;;;;;4970361;28;20514;-88
2023/09/24 02:50:13;;;;;;;6.90;3.95;;;10.50;94.40;;;;;;4954061;29;20058;-88
2023/09/24 02:52:45;;;;;;;23.65;5.68;;;10.50;95.00;;;;;;4954674;29;20051;-89
2023/09/24 02:55:13;;;;;;;31.75;6.68;;;10.70;95.10;;;;;;4954586;29;20498;-89
2023/09/24 02:57:44;;;;;;;39.70;6.65;;;10.50;95.30;;;;;;4954150;29;20043;-89
2023/09/24 03:03:03;;;;;;;47.13;7.70;;;10.60;95.40;;;;;;4956158;29;20090;-88
2023/09/24 03:05:29;;;;;;;73.70;10.02;;;11.40;95.90;;;;;;4939176;29;20065;-88
2023/09/24 03:07:57;;;;;;;39.90;7.40;;;10.50;96.00;;;;;;4955765;29;20123;-88
2023/09/24 03:10:23;;;;;;;30.48;6.60;;;10.60;96.10;;;;;;4939242;29;20047;-88
2023/09/24 03:12:50;;;;;;;21.33;5.90;;;10.60;96.40;;;;;;4953462;29;20409;-88
2023/09/24 03:15:16;;;;;;;25.38;6.40;;;10.50;96.50;;;;;;4954082;29;20458;-88
2023/09/24 03:17:46;;;;;;;18.10;5.68;;;10.50;96.80;;;;;;4956692;29;20063;-89
2023/09/24 03:20:15;;;;;;;25.10;6.25;;;10.50;96.90;;;;;;4955931;29;20051;-89
2023/09/24 03:23:12;;;;;;;63.83;9.85;;;10.50;97.00;;;;;;4955743;29;20094;-92
2023/09/24 03:25:40;;;;;;;55.72;9.18;;;10.60;96.90;;;;;;4934771;29;20078;-88
2023/09/24 03:28:05;;;;;;;33.25;8.38;;;10.50;97.20;;;;;;4955489;29;20059;-88
2023/09/24 03:30:31;;;;;;;34.47;8.07;;;10.50;97.40;;;;;;4940549;29;20047;-88
2023/09/24 03:32:58;;;;;;;20.40;7.30;;;10.50;97.30;;;;;;4938672;29;20050;-88
2023/09/24 03:35:26;;;;;;;45.95;10.15;;;10.50;97.80;;;;;;4953992;29;20047;-88
2023/09/24 03:37:52;;;;;;;21.58;7.78;;;10.50;98.10;;;;;;4954294;29;20078;-88
2023/09/24 03:40:26;;;;;;;12.32;6.85;;;10.50;98.40;;;;;;4955858;29;20044;-87
2023/09/24 03:42:52;;;;;;;8.93;7.13;;;10.50;98.40;;;;;;4954785;29;20043;-88
2023/09/24 03:45:19;;;;;;;15.27;8.25;;;10.50;98.70;;;;;;4937926;29;20379;-88
2023/09/24 03:47:46;;;;;;;9.20;7.80;;;10.40;98.90;;;;;;4953942;29;20043;-89
2023/09/24 03:50:16;;;;;;;;;;;10.40;98.80;;;;;;4938477;29;20047;-88
2023/09/24 03:52:52;;;;;;;13.98;7.40;;;10.40;99.20;;;;;;4953751;29;19922;-88
2023/09/24 03:55:21;;;;;;;7.55;6.75;;;10.30;98.80;;;;;;4969574;28;20489;-89
2023/09/24 03:57:47;;;;;;;6.68;6.07;;;10.30;98.90;;;;;;4938301;29;20094;-89
2023/09/24 04:00:15;;;;;;;8.10;6.55;;;10.30;99.00;;;;;;4954166;29;20058;-88
2023/09/24 04:02:43;;;;;;;6.85;6.15;;;10.30;98.70;;;;;;4955003;29;20098;-88
2023/09/24 04:05:14;;;;;;;8.48;6.18;;;10.30;98.50;;;;;;4953547;28;20051;-88
2023/09/24 04:07:40;;;;;;;7.65;6.13;;;10.30;98.20;;;;;;4955313;29;20064;-88
2023/09/24 04:10:07;;;;;;;5.20;4.72;;;10.30;97.70;;;;;;4938942;29;20043;-88
2023/09/24 04:12:35;;;;;;;8.15;6.00;;;10.20;97.10;;;;;;4938687;28;20094;-88
2023/09/24 04:15:02;;;;;;;8.05;7.18;;;10.20;97.00;;;;;;4940688;29;20051;-89
2023/09/24 04:17:36;;;;;;;15.85;6.85;;;10.10;96.80;;;;;;4957672;29;20513;-88
2023/09/24 04:20:03;;;;;;;9.93;6.30;;;10.20;96.70;;;;;;4958180;28;20047;-88
2023/09/24 04:22:29;;;;;;;6.75;5.38;;;9.20;96.20;;;;;;4942029;29;20051;-88
2023/09/24 04:24:55;;;;;;;6.15;5.55;;;10.00;95.90;;;;;;4956877;29;20067;-89
2023/09/24 04:27:22;;;;;;;7.07;5.13;;;10.00;96.20;;;;;;4957127;29;20154;-88
2023/09/24 04:29:48;;;;;;;5.82;5.22;;;10.00;96.10;;;;;;4957353;29;20055;-88
2023/09/24 04:32:15;;;;;;;7.95;6.95;;;9.90;95.70;;;;;;4958358;29;20106;-88
2023/09/24 04:34:41;;;;;;;9.07;6.18;;;9.90;95.70;;;;;;4941425;29;20107;-88
2023/09/24 04:37:07;;;;;;;6.72;6.03;;;9.90;95.80;;;;;;4958166;29;20085;-88
2023/09/24 04:39:33;;;;;;;7.30;6.53;;;10.40;95.80;;;;;;4958760;29;20137;-88
2023/09/24 04:41:59;;;;;;;11.13;6.17;;;9.80;95.50;;;;;;4957647;29;20047;-88
2023/09/24 04:44:27;;;;;;;6.57;5.73;;;9.90;95.50;;;;;;4957371;29;20486;-88
2023/09/24 04:46:54;;;;;;;9.77;6.85;;;8.80;95.00;;;;;;4956901;29;20051;-92
2023/09/24 04:49:20;;;;;;;7.90;6.30;;;9.80;95.50;;;;;;4956988;29;20087;-88
2023/09/24 04:51:46;;;;;;;8.95;6.90;;;9.80;95.30;;;;;;4956838;29;20383;-88
2023/09/24 04:54:12;;;;;;;14.05;7.72;;;9.70;95.40;;;;;;4956225;29;20097;-89
2023/09/24 04:56:38;;;;;;;8.83;7.40;;;9.70;95.60;;;;;;4957219;29;20090;-89
2023/09/24 04:59:04;;;;;;;11.80;8.80;;;9.70;96.00;;;;;;4958129;29;20457;-88
2023/09/24 05:01:32;;;;;;;11.83;8.30;;;9.80;96.50;;;;;;4957591;29;20062;-88
2023/09/24 05:03:59;;;;;;;10.05;7.53;;;9.70;96.90;;;;;;4959662;29;20051;-89
2023/09/24 05:06:25;;;;;;;9.98;7.40;;;9.70;97.00;;;;;;4957520;29;20053;-88
2023/09/24 05:08:52;;;;;;;8.32;7.28;;;9.70;97.00;;;;;;4958516;28;20047;-88
2023/09/24 05:11:23;;;;;;;8.70;7.10;;;9.70;97.10;;;;;;4959788;28;20091;-88
2023/09/24 05:13:49;;;;;;;11.45;7.45;;;9.60;97.40;;;;;;4956437;29;20051;-88
2023/09/24 05:16:15;;;;;;;10.47;6.93;;;9.60;97.70;;;;;;4955823;29;20051;-89
2023/09/24 05:18:41;;;;;;;7.88;7.07;;;9.60;97.40;;;;;;4955570;29;20055;-88
2023/09/24 05:21:15;;;;;;;10.27;7.00;;;9.60;97.40;;;;;;4955951;29;20133;-88
2023/09/24 05:23:41;;;;;;;8.00;6.97;;;9.70;97.10;;;;;;4956184;28;20112;-88
2023/09/24 05:26:13;;;;;;;12.07;8.13;;;9.70;97.40;;;;;;4956235;29;20529;-88
2023/09/24 05:28:39;;;;;;;12.00;8.73;;;9.60;97.30;;;;;;4957280;29;20044;-88
2023/09/24 05:31:08;;;;;;;11.75;8.80;;;9.70;97.30;;;;;;4956486;29;20135;-89
2023/09/24 05:33:34;;;;;;;10.82;8.75;;;8.80;96.90;;;;;;4957987;29;20442;-88
2023/09/24 05:36:00;;;;;;;11.18;8.23;;;10.30;97.50;;;;;;4956699;29;20106;-94
2023/09/24 05:38:27;;;;;;;13.88;9.15;;;9.60;97.30;;;;;;4956457;29;20047;-88
2023/09/24 05:40:53;;;;;;;9.30;7.68;;;9.70;97.20;;;;;;4957548;29;20047;-88
2023/09/24 05:43:22;;;;;;;9.60;7.68;;;9.70;97.30;;;;;;4955575;29;20110;-88
2023/09/24 05:45:49;;;;;;;13.23;8.10;;;9.80;97.30;;;;;;4958475;29;20051;-88
2023/09/24 05:48:15;;;;;;;;;;;9.70;97.50;;;;;;4956064;29;20057;-89
2023/09/24 05:50:41;;;;;;;14.52;8.52;;;9.70;98.50;;;;;;4955757;29;19973;-89
2023/09/24 05:53:12;;;;;;;16.38;9.25;;;9.80;97.90;;;;;;4956371;29;20371;-88
2023/09/24 05:55:38;;;;;;;11.27;8.43;;;9.80;97.60;;;;;;4955319;29;20043;-88
2023/09/24 05:58:05;;;;;;;11.75;9.60;;;9.80;97.60;;;;;;4955026;29;20053;-90
2023/09/24 06:00:34;;;;;;;9.77;8.38;;;9.90;97.50;;;;;;4955572;29;20047;-88
2023/09/24 06:03:02;;;;;;;14.25;9.07;;;9.90;98.00;;;;;;4955343;29;20486;-89
2023/09/24 06:05:30;;;;;;;14.00;8.52;;;9.90;98.10;;;;;;4955145;28;20101;-89
2023/09/24 06:07:58;;;;;;;12.75;9.65;;;10.00;98.00;;;;;;4955259;29;20106;-88
2023/09/24 06:10:24;;;;;;;13.50;9.48;;;10.00;98.30;;;;;;4954948;29;20085;-89
2023/09/24 06:12:52;;;;;;;12.57;8.87;;;10.10;99.50;;;;;;4955488;29;20051;-89
2023/09/24 06:15:21;;;;;;;11.65;8.13;;;10.30;99.90;;;;;;4955162;29;20494;-89
2023/09/24 06:17:49;;;;;;;11.13;8.50;;;10.40;99.90;;;;;;4956125;29;20046;-88
2023/09/24 06:20:16;;;;;;;11.68;8.48;;;10.70;99.90;;;;;;4954682;29;20062;-89
2023/09/24 06:22:42;;;;;;;9.85;7.53;;;11.00;99.90;;;;;;4954895;29;20475;-88
2023/09/24 06:25:11;;;;;;;9.82;7.68;;;11.50;98.60;;;;;;4955597;29;20086;-90
2023/09/24 06:27:40;;;;;;;12.00;8.00;;;11.50;97.50;;;;;;4955246;29;20146;-88
2023/09/24 06:30:11;;;;;;;9.05;6.88;;;11.80;96.50;;;;;;4939171;29;20050;-89
2023/09/24 06:32:39;;;;;;;15.25;7.88;;;11.90;94.20;;;;;;4955022;29;20047;-89
2023/09/24 06:35:08;;;;;;;8.90;7.28;;;12.10;91.00;;;;;;4954757;28;20043;-89
2023/09/24 06:37:36;;;;;;;13.73;8.15;;;11.70;88.80;;;;;;4957387;29;20125;-89
2023/09/24 06:40:05;;;;;;;13.10;8.63;;;11.80;88.00;;;;;;4957118;29;20039;-89
2023/09/24 06:42:31;;;;;;;9.18;7.53;;;11.70;86.60;;;;;;4954510;29;20042;-89
2023/09/24 06:44:59;;;;;;;12.88;8.68;;;11.60;85.00;;;;;;4954588;29;20454;-89
2023/09/24 06:47:25;;;;;;;11.55;8.25;;;11.50;83.50;;;;;;4954418;29;20057;-89
2023/09/24 06:49:53;;;;;;;11.63;7.77;;;11.60;83.30;;;;;;4955031;29;20051;-89
2023/09/24 06:52:19;;;;;;;11.07;8.80;;;11.50;81.30;;;;;;4955298;29;20141;-89
2023/09/24 06:54:45;;;;;;;10.37;8.67;;;11.60;81.40;;;;;;4970734;28;20130;-89
2023/09/24 06:57:11;;;;;;;11.27;8.63;;;12.00;80.60;;;;;;4957159;29;20070;-90
2023/09/24 06:59:42;;;;;;;10.45;7.85;;;12.50;75.00;;;;;;4957521;28;20062;-90
2023/09/24 07:02:08;;;;;;;9.75;7.13;;;12.90;67.10;;;;;;4956025;29;20482;-90
2023/09/24 07:04:34;;;;;;;11.30;7.43;;;13.20;59.70;;;;;;4972035;28;20114;-89
2023/09/24 07:07:01;;;;;;;12.63;8.20;;;13.90;55.40;;;;;;4956409;29;20338;-90
2023/09/24 07:09:29;;;;;;;9.18;7.40;;;13.60;50.70;;;;;;4954044;29;20074;-89
2023/09/24 07:11:55;;;;;;;9.23;6.85;;;13.90;42.70;;;;;;4954472;29;20048;-89
2023/09/24 07:14:20;;;;;;;9.95;7.35;;;14.30;36.20;;;;;;4955341;29;20054;-89
2023/09/24 07:16:46;;;;;;;12.43;7.07;;;14.60;30.10;;;;;;4955956;28;20410;-89
2023/09/24 07:19:12;;;;;;;8.90;6.97;;;14.90;24.20;;;;;;4956822;29;20051;-89
2023/09/24 07:21:40;;;;;;;10.27;7.22;;;15.10;18.10;;;;;;4954798;29;20093;-90
2023/09/24 07:24:06;;;;;;;9.82;7.28;;;14.30;10.00;;;;;;4938186;29;20047;-90
2023/09/24 07:26:32;;;;;;;11.68;7.15;;;15.20;1.00;;;;;;4953561;29;20047;-89
2023/09/24 07:29:00;;;;;;;10.80;6.97;;;15.30;1.00;;;;;;4954109;29;20052;-89
2023/09/24 07:31:29;;;;;;;9.25;6.55;;;15.40;1.00;;;;;;4953756;29;20051;-90
2023/09/24 07:34:00;;;;;;;9.55;6.53;;;15.60;1.00;;;;;;4939708;29;20052;-89
2023/09/24 07:36:33;;;;;;;9.13;6.95;;;15.30;1.00;;;;;;4957006;28;20051;-90
2023/09/24 07:38:59;;;;;;;9.27;6.93;;;15.80;1.00;;;;;;4953815;29;20062;-89
2023/09/24 07:41:27;;;;;;;11.35;7.57;;;15.90;1.00;;;;;;4952936;29;20072;-89
2023/09/24 07:43:53;;;;;;;10.73;6.90;;;15.90;1.00;;;;;;4955836;29;20416;-90
2023/09/24 07:46:19;;;;;;;13.73;7.95;;;16.00;1.00;;;;;;4940334;29;20051;-93
2023/09/24 07:48:48;;;;;;;9.20;7.10;;;15.10;1.00;;;;;;4959965;29;20134;-90
2023/09/24 07:51:22;;;;;;;14.55;6.47;;;15.80;1.00;;;;;;4958009;29;20083;-89
2023/09/24 07:53:52;;;;;;;8.55;7.18;;;15.90;1.00;;;;;;4958024;29;20055;-89
2023/09/24 07:56:20;;;;;;;11.27;7.63;;;16.00;1.00;;;;;;4960319;29;20391;-90
2023/09/24 07:58:49;;;;;;;10.40;7.30;;;16.20;1.00;;;;;;4958973;29;20047;-90
2023/09/24 08:01:15;;;;;;;9.48;6.93;;;16.30;1.00;;;;;;4957476;29;20137;-90
2023/09/24 08:03:44;;;;;;;10.82;5.93;;;16.30;1.00;;;;;;4957201;29;20147;-90
2023/09/24 08:06:13;;;;;;;10.02;6.88;;;16.50;1.00;;;;;;4957461;29;20482;-90
2023/09/24 08:08:41;;;;;;;11.40;7.72;;;16.50;1.00;;;;;;4957153;29;20058;-90
2023/09/24 08:11:07;;;;;;;7.85;6.13;;;16.60;1.00;;;;;;4957110;29;20133;-90
2023/09/24 08:13:32;;;;;;;12.27;6.10;;;16.70;1.00;;;;;;4956742;29;20138;-90
2023/09/24 08:16:00;;;;;;;8.07;6.20;;;16.00;1.00;;;;;;4940391;29;20062;-90
2023/09/24 08:18:37;;;;;;;9.77;6.63;;;16.50;1.00;;;;;;4940681;29;20137;-90
2023/09/24 08:21:02;;;;;;;8.80;6.30;;;16.40;1.00;;;;;;4942224;29;20047;-90
2023/09/24 08:23:28;;;;;;;8.18;5.63;;;16.40;1.00;;;;;;4956060;29;20105;-90
2023/09/24 08:25:54;;;;;;;7.47;5.95;;;16.40;1.00;;;;;;4956630;29;20055;-90
2023/09/24 08:28:20;;;;;;;9.02;6.13;;;16.30;1.00;;;;;;4940901;29;20055;-90
2023/09/24 08:30:48;;;;;;;8.05;6.18;;;16.40;1.00;;;;;;4956463;29;20043;-90
2023/09/24 08:33:14;;;;;;;11.27;6.53;;;16.30;1.00;;;;;;4956727;29;20090;-90
2023/09/24 08:35:40;;;;;;;7.38;5.53;;;16.20;1.00;;;;;;4956113;28;20078;-89
2023/09/24 08:38:06;;;;;;;9.48;7.05;;;16.10;1.00;;;;;;4956738;29;20109;-90
2023/09/24 08:40:32;;;;;;;8.95;6.03;;;16.00;1.00;;;;;;4956253;29;20051;-90
2023/09/24 08:42:58;;;;;;;7.45;6.13;;;15.90;1.00;;;;;;4956639;29;20134;-89
2023/09/24 08:45:28;;;;;;;7.13;5.80;;;15.80;1.00;;;;;;4956444;29;20051;-90
2023/09/24 08:47:57;;;;;;;9.20;5.70;;;15.80;1.00;;;;;;4956891;29;20482;-90
2023/09/24 08:50:27;;;;;;;6.35;5.53;;;15.80;1.00;;;;;;4956615;29;20047;-90
2023/09/24 08:52:54;;;;;;;8.63;5.63;;;15.80;1.00;;;;;;4956721;29;20049;-90
2023/09/24 08:55:26;;;;;;;10.18;6.20;;;15.70;1.00;;;;;;4956494;29;20088;-89
2023/09/24 08:57:57;;;;;;;7.47;5.68;;;14.90;1.00;;;;;;4955443;28;20383;-90
2023/09/24 09:00:55;;;;;;;;;;;;;;;;;;;;;
2023/09/24 09:03:21;;;;;;;6.65;5.43;;;15.80;1.00;;;;;;4949351;29;20043;-90
2023/09/24 09:05:48;;;;;;;8.93;6.25;;;15.80;1.00;;;;;;4955590;29;20070;-90
2023/09/24 09:08:13;;;;;;;10.95;6.20;;;15.50;1.00;;;;;;4956293;29;20105;-90
2023/09/24 09:10:49;;;;;;;;;;;;;;;;;;;;;
2023/09/24 09:13:22;;;;;;;10.00;5.53;;;16.00;1.00;;;;;;4955898;29;20538;-89
2023/09/24 09:16:03;;;;;;;10.38;5.70;;;16.00;1.00;;;;;;4954915;29;20070;-90
2023/09/24 09:18:29;;;;;;;8.10;5.75;;;16.00;1.00;;;;;;4940434;29;20051;-90
2023/09/24 09:21:01;;;;;;;8.95;5.85;;;16.00;1.00;;;;;;4955809;29;20096;-90
2023/09/24 09:23:33;;;;;;;11.60;6.07;;;16.10;1.00;;;;;;4956071;29;20375;-90
2023/09/24 09:26:01;;;;;;;10.07;5.35;;;16.10;1.00;;;;;;4956393;29;20525;-90
2023/09/24 09:28:29;;;;;;;14.52;6.07;;;16.20;1.00;;;;;;4956481;29;20047;-90
2023/09/24 09:31:06;;;;;;;8.32;4.88;;;16.30;1.00;;;;;;4956404;29;20051;-91
2023/09/24 09:33:42;;;;;;;13.38;5.43;;;16.30;1.00;;;;;;4956192;29;20050;-91
2023/09/24 09:36:27;;;;;;;6.88;4.70;;;16.40;1.00;;;;;;4955983;29;20105;-91
2023/09/24 09:38:57;;;;;;;9.20;5.20;;;16.50;1.00;;;;;;4955352;29;20394;-90
2023/09/24 09:41:24;;;;;;;9.65;5.15;;;16.60;1.00;;;;;;4955874;29;20098;-90
2023/09/24 09:43:52;;;;;;;6.45;3.95;;;16.50;1.00;;;;;;4955553;29;20061;-90
2023/09/24 09:46:30;;;;;;;7.72;4.68;;;16.70;1.00;;;;;;4956426;29;20134;-90
2023/09/24 09:49:07;;;;;;;5.88;3.75;;;16.80;1.00;;;;;;4956090;29;20055;-90
2023/09/24 09:51:53;;;;;;;;;;;17.00;1.00;;;;;;4956636;29;20090;-90
2023/09/24 09:54:24;;;;;;;4.85;3.20;;;17.10;1.00;;;;;;4955035;29;20017;-90
2023/09/24 09:56:51;;;;;;;8.82;3.38;;;17.30;1.00;;;;;;4955581;29;20051;-90
2023/09/24 09:59:19;;;;;;;9.93;3.40;;;17.20;1.00;;;;;;4956035;29;20055;-91
2023/09/24 10:01:45;;;;;;;5.35;2.80;;;17.30;1.00;;;;;;4954965;29;20090;-90
2023/09/24 10:04:11;;;;;;;5.63;2.90;;;17.40;1.00;;;;;;4956596;29;20490;-91
2023/09/24 10:06:45;;;;;;;;;;;17.40;1.00;;;;;;4972754;28;20047;-91
2023/09/24 10:09:26;;;;;;;7.97;3.33;;;17.50;99.90;;;;;;4955534;28;19977;-90
2023/09/24 10:11:55;;;;;;;6.43;2.75;;;17.60;99.90;;;;;;4955393;29;20151;-90
2023/09/24 10:14:35;;;;;;;5.05;2.55;;;17.60;99.90;;;;;;4954797;29;20114;-90
2023/09/24 10:17:16;;;;;;;5.30;3.38;;;17.60;99.90;;;;;;4939642;29;20452;-91
2023/09/24 10:19:51;;;;;;;7.57;3.42;;;17.70;99.90;;;;;;4954509;29;20059;-92
2023/09/24 10:22:33;;;;;;;6.07;3.13;;;17.60;99.90;;;;;;4954766;29;20453;-91
2023/09/24 10:25:23;;;;;;;5.38;3.50;;;17.80;99.90;;;;;;4954701;29;20055;-90
2023/09/24 10:28:11;;;;;;;5.80;3.20;;;17.90;99.90;;;;;;4955161;29;20051;-90
2023/09/24 10:31:03;;;;;;;6.97;3.30;;;18.10;99.90;;;;;;4939675;29;20057;-90
2023/09/24 10:34:02;;;;;;;6.15;3.03;;;18.20;99.90;;;;;;4954353;29;20057;-90
2023/09/24 10:36:30;;;;;;;7.72;3.03;;;18.30;99.90;;;;;;4949477;28;20055;-90
2023/09/24 10:39:06;;;;;;;7.32;3.00;;;18.40;99.90;;;;;;4954315;29;20513;-90
2023/09/24 10:41:33;;;;;;;;;;;18.60;99.90;;;;;;4955322;29;20051;-90
2023/09/24 10:44:24;;;;;;;4.47;2.30;;;18.60;98.20;;;;;;4954390;29;20013;-90
2023/09/24 10:46:51;;;;;;;5.22;2.47;;;18.60;99.90;;;;;;4938406;29;20055;-90
2023/09/24 10:49:21;;;;;;;5.82;2.72;;;18.60;99.90;;;;;;4955582;28;20047;-90
2023/09/24 10:51:58;;;;;;;6.68;3.55;;;18.70;99.90;;;;;;4953725;29;20118;-90
2023/09/24 10:54:23;;;;;;;2.90;1.90;;;18.90;99.90;;;;;;4954698;29;20123;-90
2023/09/24 10:56:49;;;;;;;5.57;2.27;;;19.00;99.90;;;;;;4940415;29;20043;-90
2023/09/24 10:59:16;;;;;;;4.88;2.78;;;19.00;99.90;;;;;;4951832;29;20302;-89
2023/09/24 11:01:45;;;;;;;5.18;2.55;;;18.90;1.00;;;;;;4961100;29;20405;-90
2023/09/24 11:04:23;;;;;;;4.53;2.17;;;19.00;1.00;;;;;;4938343;29;20043;-90
2023/09/24 11:06:49;;;;;;;6.28;1.98;;;19.00;6.10;;;;;;4940008;29;20062;-92
2023/09/24 11:09:21;;;;;;;3.60;2.20;;;19.10;1.00;;;;;;4954846;29;20493;-90
2023/09/24 11:11:47;;;;;;;3.33;2.00;;;19.20;99.90;;;;;;4954101;29;20138;-92
2023/09/24 11:14:22;;;;;;;6.72;2.58;;;19.20;99.90;;;;;;4938187;29;20047;-90
2023/09/24 11:16:53;;;;;;;3.22;1.95;;;19.20;99.90;;;;;;4954224;29;20051;-92
2023/09/24 11:19:42;;;;;;;5.10;2.28;;;19.30;99.90;;;;;;4953949;29;20048;-90
2023/09/24 11:22:24;;;;;;;3.97;2.00;;;19.40;1.00;;;;;;4953858;29;20046;-91
2023/09/24 11:25:12;;;;;;;3.92;2.17;;;19.40;99.90;;;;;;4954475;29;20137;-90
2023/09/24 11:27:48;;;;;;;4.20;2.03;;;19.60;1.00;;;;;;4954411;29;20114;-89
2023/09/24 11:30:15;;;;;;;5.05;2.35;;;19.70;99.90;;;;;;4953539;29;20058;-89
2023/09/24 11:32:42;;;;;;;3.20;1.85;;;19.80;99.90;;;;;;4954272;28;20054;-90
2023/09/24 11:35:09;;;;;;;3.80;2.00;;;19.90;99.90;;;;;;4953492;29;20056;-90
2023/09/24 11:37:53;;;;;;;3.63;1.65;;;20.10;99.90;;;;;;4953701;29;20047;-90
2023/09/24 11:40:28;;;;;;;3.80;2.60;;;20.10;99.90;;;;;;4953810;29;20047;-90
2023/09/24 11:43:15;;;;;;;3.30;1.75;;;20.20;99.90;;;;;;4953313;29;20146;-90
2023/09/24 11:45:46;;;;;;;2.67;1.63;;;20.30;34.50;;;;;;4953606;29;20043;-88
2023/09/24 11:48:23;;;;;;;4.53;2.30;;;20.30;98.20;;;;;;4953260;29;20070;-88
2023/09/24 11:50:53;;;;;;;4.10;1.80;;;20.30;96.40;;;;;;4954047;29;20058;-88
2023/09/24 11:53:21;;;;;;;4.85;1.90;;;20.40;99.90;;;;;;4953436;29;20061;-88
2023/09/24 11:55:52;;;;;;;3.15;1.80;;;20.40;99.90;;;;;;4953199;29;20393;-88
2023/09/24 11:58:18;;;;;;;6.15;1.73;;;20.50;99.90;;;;;;4953002;29;20047;-90
2023/09/24 12:00:44;;;;;;;3.17;1.67;;;20.60;99.90;;;;;;4937588;29;20077;-90
2023/09/24 12:03:16;;;;;;;3.95;1.33;;;20.50;1.00;;;;;;4953364;29;20121;-90
2023/09/24 12:05:42;;;;;;;2.75;1.73;;;20.50;1.00;;;;;;4953754;29;20043;-90
2023/09/24 12:08:08;;;;;;;2.63;1.67;;;20.50;99.90;;;;;;4953410;28;20101;-90
2023/09/24 12:10:40;;;;;;;5.03;1.70;;;20.50;99.90;;;;;;4953407;29;20053;-90
2023/09/24 12:13:10;;;;;;;3.00;1.40;;;20.50;1.00;;;;;;4952893;29;20047;-90
2023/09/24 12:15:36;;;;;;;4.72;1.42;;;20.40;99.90;;;;;;4952867;29;20051;-90
2023/09/24 12:18:04;;;;;;;3.80;1.92;;;20.50;99.90;;;;;;4953251;28;20134;-90
2023/09/24 12:20:31;;;;;;;3.28;1.58;;;20.50;99.90;;;;;;4937596;29;20039;-90
2023/09/24 12:22:59;;;;;;;3.67;1.95;;;20.60;99.90;;;;;;4953983;29;20043;-89
2023/09/24 12:25:33;;;;;;;4.70;1.70;;;20.50;1.00;;;;;;4941453;29;20066;-90
2023/09/24 12:27:59;;;;;;;2.60;1.70;;;20.50;99.90;;;;;;4955119;29;20130;-92
2023/09/24 12:30:25;;;;;;;6.13;1.58;;;20.60;1.00;;;;;;4940924;29;20473;-90
2023/09/24 12:32:51;;;;;;;4.53;1.70;;;20.60;99.90;;;;;;4953765;28;20102;-90
2023/09/24 12:35:17;;;;;;;3.38;1.55;;;20.70;1.00;;;;;;4944074;29;20113;-89
2023/09/24 12:37:43;;;;;;;3.53;1.70;;;20.90;99.90;;;;;;4961506;29;20453;-90
2023/09/24 12:40:10;;;;;;;3.95;1.52;;;21.00;99.90;;;;;;4959369;28;20047;-91
2023/09/24 12:42:38;;;;;;;3.20;1.50;;;21.20;1.00;;;;;;4960127;29;20043;-90
2023/09/24 12:45:05;;;;;;;2.63;1.23;;;21.30;1.00;;;;;;4956486;29;20043;-91
2023/09/24 12:47:33;;;;;;;1.50;1.13;;;21.30;99.90;;;;;;4974044;28;20138;-90
2023/09/24 12:50:06;;;;;;;4.45;2.05;;;21.40;19.80;;;;;;4944061;29;20109;-90
2023/09/24 12:52:41;;;;;;;5.07;2.03;;;21.40;99.90;;;;;;4959879;29;20051;-90
2023/09/24 12:55:08;;;;;;;3.03;1.80;;;21.40;99.90;;;;;;4941888;29;20129;-90
2023/09/24 12:57:35;;;;;;;5.63;1.73;;;21.40;1.00;;;;;;4957855;28;20083;-90
2023/09/24 13:00:04;;;;;;;2.65;1.50;;;21.50;26.10;;;;;;4941000;29;20126;-90
2023/09/24 13:02:30;;;;;;;4.43;1.80;;;21.50;99.90;;;;;;4959645;28;20055;-89
2023/09/24 13:04:55;;;;;;;3.22;1.58;;;21.40;99.90;;;;;;4956482;29;20450;-89
2023/09/24 13:07:21;;;;;;;5.47;1.60;;;21.40;31.50;;;;;;4956645;28;20062;-89